PWSweather.com
Personal Weather Stations
Station Observations
KPASPRIN10
East Vincent, East Vincent, PA 19475

East VincentEast Vincent, PA 19475

Lat: 40.170948, Lon: -75.629681

Elevation: 404

Station Type: Davis VP2

http://www.evweather.com

Latest ConditionsUpdated 8:00:01 PM EDT Thursday, May 23, 2019
Currently Today's Max Today's Min Today's Average
Temperature 72.6°F22.6°C 74.6°F23.7°C 60.5°F15.8°C 66.4°F19.1°C
Dew Point 67.1°F19.5°C 67.3°F19.6°C 45.5°F7.5°C 58.0°F14.4°C
Winds 4.6 mph SW7.4 kmh SW 8.1 mph -13.0 kmh - - 3.3 mph 5.3 kmh
Wind Gusts 6.9 mph11.1 kmh 11.5 mph18.5 kmh - -
Humidity 83% 85% 54% 74%
Pressure 29.87 in1011.5 mb 30.20 in1022.7 mb 29.87 in1011.5 mb -
Precipitation - 0.01 in0.3 mm - -
Hour Temp Dew Point Humidity Winds Wind Gusts Pressure Precip Precip Rate Daily Precip Total
08:00 PM 72.6°F22.6°C 67.1°F19.5°C 83% 4.6 mph SW7.4 kmh SW 6.9 mph11.1 kmh 29.87 in1011.5 mb - 0.00 in0.0 mm 0.01 in0.3 mm
07:50 PM 72.8°F22.7°C 67.3°F19.6°C 83% 4.6 mph SW7.4 kmh SW 8.1 mph13.0 kmh 29.87 in1011.5 mb - 0.00 in0.0 mm 0.01 in0.3 mm
07:40 PM 72.9°F22.7°C 67.1°F19.5°C 82% 3.5 mph SW5.6 kmh SW 4.6 mph7.4 kmh 29.87 in1011.5 mb - 0.00 in0.0 mm 0.01 in0.3 mm
07:30 PM 72.8°F22.7°C 67.0°F19.4°C 82% 5.8 mph SW9.3 kmh SW 10.4 mph16.7 kmh 29.87 in1011.5 mb - 0.00 in0.0 mm 0.01 in0.3 mm
07:20 PM 72.4°F22.4°C 66.9°F19.4°C 83% 4.6 mph WSW7.4 kmh WSW 5.8 mph9.3 kmh 29.88 in1011.9 mb - 0.00 in0.0 mm 0.01 in0.3 mm
07:10 PM 72.3°F22.4°C 66.8°F19.3°C 83% 4.6 mph SW7.4 kmh SW 4.6 mph7.4 kmh 29.88 in1011.9 mb - 0.00 in0.0 mm 0.01 in0.3 mm
07:00 PM 72.2°F22.3°C 66.7°F19.3°C 83% 2.3 mph WSW3.7 kmh WSW 6.9 mph11.1 kmh 29.88 in1011.9 mb - 0.00 in0.0 mm 0.01 in0.3 mm
06:50 PM 72.4°F22.4°C 66.6°F19.2°C 82% 4.6 mph SW7.4 kmh SW 6.9 mph11.1 kmh 29.89 in1012.2 mb - 0.00 in0.0 mm 0.01 in0.3 mm
06:40 PM 72.3°F22.4°C 66.5°F19.2°C 82% 3.5 mph SW5.6 kmh SW 3.5 mph5.6 kmh 29.89 in1012.2 mb - 0.00 in0.0 mm 0.01 in0.3 mm
06:30 PM 72.1°F22.3°C 66.3°F19.1°C 82% 5.8 mph WSW9.3 kmh WSW 9.2 mph14.8 kmh 29.90 in1012.5 mb - 0.00 in0.0 mm 0.01 in0.3 mm
06:20 PM 72.3°F22.4°C 66.5°F19.2°C 82% 2.3 mph SW3.7 kmh SW 3.5 mph5.6 kmh 29.89 in1012.2 mb - 0.00 in0.0 mm 0.01 in0.3 mm
06:10 PM 72.6°F22.6°C 66.8°F19.3°C 82% 2.3 mph S3.7 kmh S 3.5 mph5.6 kmh 29.90 in1012.5 mb - 0.00 in0.0 mm 0.01 in0.3 mm
06:00 PM 72.4°F22.4°C 66.2°F19.0°C 81% 4.6 mph S7.4 kmh S 5.8 mph9.3 kmh 29.90 in1012.5 mb - 0.00 in0.0 mm 0.01 in0.3 mm
05:50 PM 72.1°F22.3°C 65.9°F18.8°C 81% 4.6 mph S7.4 kmh S 4.6 mph7.4 kmh 29.90 in1012.5 mb - 0.00 in0.0 mm 0.01 in0.3 mm
05:40 PM 71.2°F21.8°C 65.4°F18.6°C 82% 3.5 mph S5.6 kmh S 3.5 mph5.6 kmh 29.91 in1012.9 mb - 0.00 in0.0 mm 0.01 in0.3 mm
05:30 PM 71.0°F21.7°C 65.2°F18.4°C 82% 3.5 mph SSW5.6 kmh SSW 6.9 mph11.1 kmh 29.91 in1012.9 mb - 0.00 in0.0 mm 0.01 in0.3 mm
05:20 PM 71.0°F21.7°C 65.2°F18.4°C 82% 2.3 mph SSE3.7 kmh SSE 3.5 mph5.6 kmh 29.91 in1012.9 mb - 0.00 in0.0 mm 0.01 in0.3 mm
05:10 PM 71.0°F21.7°C 65.2°F18.4°C 82% 1.2 mph SSW1.9 kmh SSW 3.5 mph5.6 kmh 29.91 in1012.9 mb - 0.00 in0.0 mm 0.01 in0.3 mm
05:00 PM 71.5°F21.9°C 65.4°F18.6°C 81% 1.2 mph SSE1.9 kmh SSE 2.3 mph3.7 kmh 29.92 in1013.2 mb - 0.00 in0.0 mm 0.01 in0.3 mm
04:50 PM 71.8°F22.1°C 65.3°F18.5°C 80% 3.5 mph SSW5.6 kmh SSW 4.6 mph7.4 kmh 29.93 in1013.5 mb - 0.00 in0.0 mm 0.01 in0.3 mm
04:40 PM 72.0°F22.2°C 65.8°F18.8°C 81% 3.5 mph SSW5.6 kmh SSW 3.5 mph5.6 kmh 29.95 in1014.2 mb - 0.00 in0.0 mm 0.01 in0.3 mm
04:30 PM 71.9°F22.2°C 66.1°F18.9°C 82% 4.6 mph S7.4 kmh S 6.9 mph11.1 kmh 29.95 in1014.2 mb - 0.00 in0.0 mm 0.01 in0.3 mm
04:20 PM 71.3°F21.8°C 65.5°F18.6°C 82% 4.6 mph SW7.4 kmh SW 5.8 mph9.3 kmh 29.96 in1014.6 mb - 0.01 in0.3 mm 0.01 in0.3 mm
04:10 PM 71.9°F22.2°C 65.1°F18.4°C 79% 3.5 mph S5.6 kmh S 5.8 mph9.3 kmh 29.97 in1014.9 mb - 0.01 in0.3 mm 0.01 in0.3 mm
04:00 PM 71.7°F22.1°C 65.6°F18.7°C 81% 4.6 mph SSW7.4 kmh SSW 4.6 mph7.4 kmh 29.98 in1015.2 mb - 0.01 in0.3 mm 0.01 in0.3 mm
03:50 PM 71.3°F21.8°C 65.8°F18.8°C 83% 3.5 mph S5.6 kmh S 3.5 mph5.6 kmh 29.98 in1015.2 mb - 0.01 in0.3 mm 0.01 in0.3 mm
03:40 PM 71.3°F21.8°C 66.2°F19.0°C 84% 1.2 mph S1.9 kmh S 2.3 mph3.7 kmh 29.99 in1015.6 mb - 0.01 in0.3 mm 0.01 in0.3 mm
03:30 PM 70.2°F21.2°C 65.5°F18.6°C 85% 2.3 mph SW3.7 kmh SW 3.5 mph5.6 kmh 30.01 in1016.3 mb - 0.01 in0.3 mm 0.01 in0.3 mm
03:20 PM 70.9°F21.6°C 64.8°F18.2°C 81% 3.5 mph SW5.6 kmh SW 4.6 mph7.4 kmh 30.01 in1016.3 mb - 0.00 in0.0 mm 0.00 in0.0 mm
03:10 PM 71.6°F22.0°C 64.4°F18.0°C 78% 4.6 mph W7.4 kmh W 9.2 mph14.8 kmh 30.00 in1015.9 mb - 0.00 in0.0 mm 0.00 in0.0 mm
03:00 PM 71.7°F22.1°C 64.8°F18.2°C 79% 4.6 mph SW7.4 kmh SW 10.4 mph16.7 kmh 30.00 in1015.9 mb - 0.00 in0.0 mm 0.00 in0.0 mm
02:50 PM 71.6°F22.0°C 64.0°F17.8°C 77% 4.6 mph S7.4 kmh S 5.8 mph9.3 kmh 30.00 in1015.9 mb - 0.00 in0.0 mm 0.00 in0.0 mm
02:40 PM 72.5°F22.5°C 63.8°F17.7°C 74% 4.6 mph SW7.4 kmh SW 6.9 mph11.1 kmh 29.99 in1015.6 mb - 0.00 in0.0 mm 0.00 in0.0 mm
02:30 PM 73.3°F22.9°C 64.1°F17.8°C 73% 6.9 mph SSW11.1 kmh SSW 9.2 mph14.8 kmh 30.00 in1015.9 mb - 0.00 in0.0 mm 0.00 in0.0 mm
02:20 PM 74.6°F23.7°C 64.6°F18.1°C 71% 5.8 mph S9.3 kmh S 9.2 mph14.8 kmh 30.00 in1015.9 mb - 0.00 in0.0 mm 0.00 in0.0 mm
02:10 PM 73.6°F23.1°C 64.0°F17.8°C 72% 6.9 mph SW11.1 kmh SW 10.4 mph16.7 kmh 30.02 in1016.6 mb - 0.00 in0.0 mm 0.00 in0.0 mm
02:00 PM 73.2°F22.9°C 64.8°F18.2°C 75% 3.5 mph SSW5.6 kmh SSW 4.6 mph7.4 kmh 30.02 in1016.6 mb - 0.00 in0.0 mm 0.00 in0.0 mm
01:50 PM 72.5°F22.5°C 63.7°F17.6°C 74% 4.6 mph SW7.4 kmh SW 5.8 mph9.3 kmh 30.02 in1016.6 mb - 0.00 in0.0 mm 0.00 in0.0 mm
01:40 PM 71.9°F22.2°C 62.7°F17.1°C 73% 3.5 mph SSE5.6 kmh SSE 10.4 mph16.7 kmh 30.03 in1016.9 mb - 0.00 in0.0 mm 0.00 in0.0 mm
01:30 PM 71.9°F22.2°C 62.8°F17.1°C 73% 5.8 mph SW9.3 kmh SW 5.8 mph9.3 kmh 30.03 in1016.9 mb - 0.00 in0.0 mm 0.00 in0.0 mm
01:20 PM 72.2°F22.3°C 63.4°F17.4°C 74% 2.3 mph S3.7 kmh S 3.5 mph5.6 kmh 30.03 in1016.9 mb - 0.00 in0.0 mm 0.00 in0.0 mm
01:10 PM 71.4°F21.9°C 62.3°F16.8°C 73% 4.6 mph SSW7.4 kmh SSW 8.1 mph13.0 kmh 30.04 in1017.3 mb - 0.00 in0.0 mm 0.00 in0.0 mm
01:00 PM 71.4°F21.9°C 61.5°F16.4°C 71% 4.6 mph SSW7.4 kmh SSW 4.6 mph7.4 kmh 30.05 in1017.6 mb - 0.00 in0.0 mm 0.00 in0.0 mm
12:50 PM 70.7°F21.5°C 61.2°F16.2°C 72% 5.8 mph SSW9.3 kmh SSW 8.1 mph13.0 kmh 30.05 in1017.6 mb - 0.00 in0.0 mm 0.00 in0.0 mm
12:40 PM 70.8°F21.6°C 61.3°F16.3°C 72% 5.8 mph SW9.3 kmh SW 10.4 mph16.7 kmh 30.06 in1017.9 mb - 0.00 in0.0 mm 0.00 in0.0 mm
12:30 PM 71.2°F21.8°C 60.1°F15.6°C 68% 8.1 mph SSW13.0 kmh SSW 10.4 mph16.7 kmh 30.07 in1018.3 mb - 0.00 in0.0 mm 0.00 in0.0 mm
12:20 PM 70.9°F21.6°C 61.0°F16.1°C 71% 2.3 mph S3.7 kmh S 6.9 mph11.1 kmh 30.07 in1018.3 mb - 0.00 in0.0 mm 0.00 in0.0 mm
12:10 PM 70.9°F21.6°C 61.4°F16.3°C 72% 3.5 mph S5.6 kmh S 6.9 mph11.1 kmh 30.08 in1018.6 mb - 0.00 in0.0 mm 0.00 in0.0 mm
12:00 PM 69.9°F21.1°C 60.1°F15.6°C 71% 4.6 mph SSE7.4 kmh SSE 4.6 mph7.4 kmh 30.09 in1019.0 mb - 0.00 in0.0 mm 0.00 in0.0 mm
11:50 AM 69.9°F21.1°C 61.2°F16.2°C 74% 5.8 mph S9.3 kmh S 9.2 mph14.8 kmh 30.09 in1019.0 mb - 0.00 in0.0 mm 0.00 in0.0 mm
11:40 AM 68.5°F20.3°C 59.9°F15.5°C 74% 4.6 mph SW7.4 kmh SW 8.1 mph13.0 kmh 30.10 in1019.3 mb - 0.00 in0.0 mm 0.00 in0.0 mm
11:30 AM 68.0°F20.0°C 59.4°F15.2°C 74% 3.5 mph S5.6 kmh S 4.6 mph7.4 kmh 30.09 in1019.0 mb - 0.00 in0.0 mm 0.00 in0.0 mm
11:20 AM 68.1°F20.1°C 59.5°F15.3°C 74% 4.6 mph SW7.4 kmh SW 9.2 mph14.8 kmh 30.10 in1019.3 mb - 0.00 in0.0 mm 0.00 in0.0 mm
11:10 AM 67.0°F19.4°C 59.1°F15.1°C 76% 4.6 mph SSW7.4 kmh SSW 8.1 mph13.0 kmh 30.10 in1019.3 mb - 0.00 in0.0 mm 0.00 in0.0 mm
11:00 AM 66.8°F19.3°C 58.2°F14.6°C 74% 3.5 mph SSW5.6 kmh SSW 10.4 mph16.7 kmh 30.11 in1019.6 mb - 0.00 in0.0 mm 0.00 in0.0 mm
10:50 AM 66.2°F19.0°C 58.4°F14.7°C 76% 3.5 mph SSE5.6 kmh SSE 10.4 mph16.7 kmh 30.11 in1019.6 mb - 0.00 in0.0 mm 0.00 in0.0 mm
10:40 AM 64.9°F18.3°C 56.8°F13.8°C 75% 3.5 mph S5.6 kmh S 4.6 mph7.4 kmh 30.11 in1019.6 mb - 0.00 in0.0 mm 0.00 in0.0 mm
10:30 AM 66.0°F18.9°C 57.1°F13.9°C 73% 3.5 mph SSE5.6 kmh SSE 8.1 mph13.0 kmh 30.12 in1020.0 mb - 0.00 in0.0 mm 0.00 in0.0 mm
10:20 AM 65.4°F18.6°C 56.5°F13.6°C 73% 6.9 mph SSW11.1 kmh SSW 8.1 mph13.0 kmh 30.11 in1019.6 mb - 0.00 in0.0 mm 0.00 in0.0 mm
10:10 AM 64.5°F18.1°C 55.7°F13.2°C 73% 1.2 mph S1.9 kmh S 3.5 mph5.6 kmh 30.12 in1020.0 mb - 0.00 in0.0 mm 0.00 in0.0 mm
10:00 AM 64.8°F18.2°C 55.9°F13.3°C 73% 4.6 mph S7.4 kmh S 5.8 mph9.3 kmh 30.12 in1020.0 mb - 0.00 in0.0 mm 0.00 in0.0 mm
09:50 AM 65.2°F18.4°C 55.2°F12.9°C 70% 4.6 mph SSW7.4 kmh SSW 9.2 mph14.8 kmh 30.13 in1020.3 mb - 0.00 in0.0 mm 0.00 in0.0 mm
09:40 AM 66.4°F19.1°C 55.5°F13.1°C 68% 3.5 mph SSW5.6 kmh SSW 10.4 mph16.7 kmh 30.13 in1020.3 mb - 0.00 in0.0 mm 0.00 in0.0 mm
09:30 AM 65.7°F18.7°C 57.2°F14.0°C 74% 2.3 mph S3.7 kmh S 5.8 mph9.3 kmh 30.14 in1020.7 mb - 0.00 in0.0 mm 0.00 in0.0 mm
09:20 AM 64.5°F18.1°C 54.5°F12.5°C 70% 4.6 mph S7.4 kmh S 4.6 mph7.4 kmh 30.14 in1020.7 mb - 0.00 in0.0 mm 0.00 in0.0 mm
09:10 AM 64.2°F17.9°C 55.3°F12.9°C 73% 2.3 mph S3.7 kmh S 4.6 mph7.4 kmh 30.14 in1020.7 mb - 0.00 in0.0 mm 0.00 in0.0 mm
09:00 AM 63.6°F17.6°C 54.4°F12.4°C 72% 5.8 mph SW9.3 kmh SW 11.5 mph18.5 kmh 30.14 in1020.7 mb - 0.00 in0.0 mm 0.00 in0.0 mm
08:50 AM 63.4°F17.4°C 55.7°F13.2°C 76% 1.2 mph S1.9 kmh S 3.5 mph5.6 kmh 30.14 in1020.7 mb - 0.00 in0.0 mm 0.00 in0.0 mm
08:40 AM 63.2°F17.3°C 55.8°F13.2°C 77% 1.2 mph SE1.9 kmh SE 2.3 mph3.7 kmh 30.15 in1021.0 mb - 0.00 in0.0 mm 0.00 in0.0 mm
08:30 AM 62.9°F17.2°C 55.5°F13.1°C 77% 1.2 mph S1.9 kmh S 2.3 mph3.7 kmh 30.15 in1021.0 mb - 0.00 in0.0 mm 0.00 in0.0 mm
08:20 AM 63.0°F17.2°C 55.3°F12.9°C 76% 2.3 mph SSE3.7 kmh SSE 5.8 mph9.3 kmh 30.15 in1021.0 mb - 0.00 in0.0 mm 0.00 in0.0 mm
08:10 AM 62.6°F17.0°C 55.6°F13.1°C 78% 3.5 mph SE5.6 kmh SE 9.2 mph14.8 kmh 30.16 in1021.3 mb - 0.00 in0.0 mm 0.00 in0.0 mm
08:00 AM 62.6°F17.0°C 56.0°F13.3°C 79% 2.3 mph SE3.7 kmh SE 4.6 mph7.4 kmh 30.16 in1021.3 mb - 0.00 in0.0 mm 0.00 in0.0 mm
07:50 AM 61.8°F16.6°C 55.9°F13.3°C 81% 3.5 mph SE5.6 kmh SE 6.9 mph11.1 kmh 30.16 in1021.3 mb - 0.00 in0.0 mm 0.00 in0.0 mm
07:40 AM 61.4°F16.3°C 55.9°F13.3°C 82% 3.5 mph ESE5.6 kmh ESE 3.5 mph5.6 kmh 30.16 in1021.3 mb - 0.00 in0.0 mm 0.00 in0.0 mm
07:30 AM 61.1°F16.2°C 55.6°F13.1°C 82% 2.3 mph SE3.7 kmh SE 3.5 mph5.6 kmh 30.17 in1021.7 mb - 0.00 in0.0 mm 0.00 in0.0 mm
07:20 AM 61.2°F16.2°C 55.7°F13.2°C 82% 1.2 mph SE1.9 kmh SE 2.3 mph3.7 kmh 30.17 in1021.7 mb - 0.00 in0.0 mm 0.00 in0.0 mm
07:10 AM 61.4°F16.3°C 55.5°F13.1°C 81% Calm Calm 2.3 mph3.7 kmh 30.17 in1021.7 mb - 0.00 in0.0 mm 0.00 in0.0 mm
07:00 AM 61.6°F16.4°C 55.7°F13.2°C 81% Calm Calm -- 30.18 in1022.0 mb - 0.00 in0.0 mm 0.00 in0.0 mm
06:50 AM 61.3°F16.3°C 55.1°F12.8°C 80% Calm Calm -- 30.18 in1022.0 mb - 0.00 in0.0 mm 0.00 in0.0 mm
06:40 AM 61.5°F16.4°C 55.3°F12.9°C 80% Calm Calm -- 30.18 in1022.0 mb - 0.00 in0.0 mm 0.00 in0.0 mm
06:30 AM 61.5°F16.4°C 54.6°F12.6°C 78% Calm Calm -- 30.18 in1022.0 mb - 0.00 in0.0 mm 0.00 in0.0 mm
06:20 AM 61.4°F16.3°C 54.8°F12.7°C 79% Calm Calm 1.2 mph1.9 kmh 30.17 in1021.7 mb - 0.00 in0.0 mm 0.00 in0.0 mm
06:10 AM 61.4°F16.3°C 54.5°F12.5°C 78% 1.2 mph N1.9 kmh N 2.3 mph3.7 kmh 30.16 in1021.3 mb - 0.00 in0.0 mm 0.00 in0.0 mm
06:00 AM 61.3°F16.3°C 54.0°F12.2°C 77% 1.2 mph SW1.9 kmh SW 3.5 mph5.6 kmh 30.15 in1021.0 mb - 0.00 in0.0 mm 0.00 in0.0 mm
05:50 AM 61.4°F16.3°C 53.8°F12.1°C 76% 2.3 mph SSW3.7 kmh SSW 2.3 mph3.7 kmh 30.14 in1020.7 mb - 0.00 in0.0 mm 0.00 in0.0 mm
05:40 AM 61.5°F16.4°C 53.5°F11.9°C 75% 2.3 mph SSW3.7 kmh SSW 2.3 mph3.7 kmh 30.14 in1020.7 mb - 0.00 in0.0 mm 0.00 in0.0 mm
05:30 AM 61.4°F16.3°C 53.4°F11.9°C 75% 1.2 mph WSW1.9 kmh WSW 2.3 mph3.7 kmh 30.15 in1021.0 mb - 0.00 in0.0 mm 0.00 in0.0 mm
05:20 AM 61.6°F16.4°C 52.9°F11.6°C 73% 2.3 mph SW3.7 kmh SW 3.5 mph5.6 kmh 30.15 in1021.0 mb - 0.00 in0.0 mm 0.00 in0.0 mm
05:10 AM 61.7°F16.5°C 53.0°F11.7°C 73% 4.6 mph WSW7.4 kmh WSW 5.8 mph9.3 kmh 30.15 in1021.0 mb - 0.00 in0.0 mm 0.00 in0.0 mm
05:00 AM 61.6°F16.4°C 52.5°F11.4°C 72% 1.2 mph S1.9 kmh S 6.9 mph11.1 kmh 30.14 in1020.7 mb - 0.00 in0.0 mm 0.00 in0.0 mm
04:50 AM 61.5°F16.4°C 52.4°F11.3°C 72% 4.6 mph S7.4 kmh S 9.2 mph14.8 kmh 30.14 in1020.7 mb - 0.00 in0.0 mm 0.00 in0.0 mm
04:40 AM 61.5°F16.4°C 52.4°F11.3°C 72% 3.5 mph S5.6 kmh S 6.9 mph11.1 kmh 30.14 in1020.7 mb - 0.00 in0.0 mm 0.00 in0.0 mm
04:30 AM 61.4°F16.3°C 51.9°F11.1°C 71% 4.6 mph SW7.4 kmh SW 5.8 mph9.3 kmh 30.15 in1021.0 mb - 0.00 in0.0 mm 0.00 in0.0 mm
04:20 AM 61.4°F16.3°C 51.9°F11.1°C 71% 2.3 mph SSW3.7 kmh SSW 3.5 mph5.6 kmh 30.14 in1020.7 mb - 0.00 in0.0 mm 0.00 in0.0 mm
04:10 AM 61.5°F16.4°C 51.6°F10.9°C 70% 2.3 mph SW3.7 kmh SW 3.5 mph5.6 kmh 30.14 in1020.7 mb - 0.00 in0.0 mm 0.00 in0.0 mm
04:00 AM 61.4°F16.3°C 51.1°F10.6°C 69% 3.5 mph S5.6 kmh S 5.8 mph9.3 kmh 30.13 in1020.3 mb - 0.00 in0.0 mm 0.00 in0.0 mm
03:50 AM 61.4°F16.3°C 51.1°F10.6°C 69% 5.8 mph SW9.3 kmh SW 11.5 mph18.5 kmh 30.14 in1020.7 mb - 0.00 in0.0 mm 0.00 in0.0 mm
03:40 AM 61.4°F16.3°C 50.7°F10.4°C 68% 3.5 mph SW5.6 kmh SW 3.5 mph5.6 kmh 30.14 in1020.7 mb - 0.00 in0.0 mm 0.00 in0.0 mm
03:30 AM 61.7°F16.5°C 51.4°F10.8°C 69% 2.3 mph SW3.7 kmh SW 3.5 mph5.6 kmh 30.15 in1021.0 mb - 0.00 in0.0 mm 0.00 in0.0 mm
03:20 AM 61.7°F16.5°C 51.0°F10.6°C 68% 2.3 mph WSW3.7 kmh WSW 3.5 mph5.6 kmh 30.15 in1021.0 mb - 0.00 in0.0 mm 0.00 in0.0 mm
03:10 AM 61.7°F16.5°C 51.0°F10.6°C 68% 1.2 mph SSW1.9 kmh SSW 3.5 mph5.6 kmh 30.15 in1021.0 mb - 0.00 in0.0 mm 0.00 in0.0 mm
03:00 AM 61.8°F16.6°C 50.7°F10.4°C 67% 3.5 mph SW5.6 kmh SW 8.1 mph13.0 kmh 30.15 in1021.0 mb - 0.00 in0.0 mm 0.00 in0.0 mm
02:50 AM 61.7°F16.5°C 50.6°F10.3°C 67% 2.3 mph SW3.7 kmh SW 3.5 mph5.6 kmh 30.15 in1021.0 mb - 0.00 in0.0 mm 0.00 in0.0 mm
02:40 AM 61.6°F16.4°C 51.0°F10.6°C 68% 3.5 mph S5.6 kmh S 4.6 mph7.4 kmh 30.16 in1021.3 mb - 0.00 in0.0 mm 0.00 in0.0 mm
02:30 AM 61.5°F16.4°C 50.9°F10.5°C 68% 3.5 mph SSW5.6 kmh SSW 3.5 mph5.6 kmh 30.16 in1021.3 mb - 0.00 in0.0 mm 0.00 in0.0 mm
02:20 AM 61.4°F16.3°C 51.1°F10.6°C 69% 2.3 mph SSW3.7 kmh SSW 5.8 mph9.3 kmh 30.16 in1021.3 mb - 0.00 in0.0 mm 0.00 in0.0 mm
02:10 AM 61.4°F16.3°C 50.7°F10.4°C 68% 2.3 mph SW3.7 kmh SW 3.5 mph5.6 kmh 30.17 in1021.7 mb - 0.00 in0.0 mm 0.00 in0.0 mm
02:00 AM 61.4°F16.3°C 50.3°F10.2°C 67% 2.3 mph SW3.7 kmh SW 4.6 mph7.4 kmh 30.17 in1021.7 mb - 0.00 in0.0 mm 0.00 in0.0 mm
01:50 AM 61.3°F16.3°C 50.2°F10.1°C 67% 4.6 mph SW7.4 kmh SW 9.2 mph14.8 kmh 30.18 in1022.0 mb - 0.00 in0.0 mm 0.00 in0.0 mm
01:40 AM 61.4°F16.3°C 49.9°F9.9°C 66% 3.5 mph SW5.6 kmh SW 5.8 mph9.3 kmh 30.18 in1022.0 mb - 0.00 in0.0 mm 0.00 in0.0 mm
01:30 AM 61.4°F16.3°C 49.6°F9.8°C 65% 3.5 mph SW5.6 kmh SW 3.5 mph5.6 kmh 30.18 in1022.0 mb - 0.00 in0.0 mm 0.00 in0.0 mm
01:20 AM 61.4°F16.3°C 49.1°F9.5°C 64% 2.3 mph S3.7 kmh S 3.5 mph5.6 kmh 30.18 in1022.0 mb - 0.00 in0.0 mm 0.00 in0.0 mm
01:10 AM 61.1°F16.2°C 48.8°F9.3°C 64% 1.2 mph SW1.9 kmh SW 4.6 mph7.4 kmh 30.18 in1022.0 mb - 0.00 in0.0 mm 0.00 in0.0 mm
01:00 AM 61.1°F16.2°C 48.4°F9.1°C 63% 1.2 mph S1.9 kmh S 3.5 mph5.6 kmh 30.18 in1022.0 mb - 0.00 in0.0 mm 0.00 in0.0 mm
12:50 AM 61.1°F16.2°C 47.5°F8.6°C 61% 1.2 mph S1.9 kmh S 3.5 mph5.6 kmh 30.19 in1022.4 mb - 0.00 in0.0 mm 0.00 in0.0 mm
12:40 AM 61.1°F16.2°C 46.6°F8.1°C 59% 2.3 mph S3.7 kmh S 3.5 mph5.6 kmh 30.19 in1022.4 mb - 0.00 in0.0 mm 0.00 in0.0 mm
12:30 AM 60.5°F15.8°C 47.0°F8.3°C 61% 2.3 mph SW3.7 kmh SW 3.5 mph5.6 kmh 30.20 in1022.7 mb - 0.00 in0.0 mm 0.00 in0.0 mm
12:20 AM 61.3°F16.3°C 46.4°F8.0°C 58% 2.3 mph S3.7 kmh S 3.5 mph5.6 kmh 30.20 in1022.7 mb - 0.00 in0.0 mm 0.00 in0.0 mm
12:10 AM 62.0°F16.7°C 45.7°F7.6°C 55% Calm Calm -- 30.19 in1022.4 mb - 0.00 in0.0 mm 0.00 in0.0 mm
12:00 AM 62.4°F16.9°C 45.5°F7.5°C 54% 2.3 mph SW3.7 kmh SW 5.8 mph9.3 kmh 30.20 in1022.7 mb - 0.00 in0.0 mm 0.00 in0.0 mm